Time;durP1;ratioP1;P1;durP2;ratioP2;P2;SDS_P1;SDS_P2;PMS_P1;PMS_P2;Temp;Humidity;BMP_temperature;BMP_pressure;BME280_temperature;BME280_humidity;BME280_pressure;Samples;Min_cycle;Max_cycle;Signal;HPM_P1;HPM_P2
2021/05/16 00:00:27;;;;;;;12.58;6.90;;;;;;;13.95;100.00;100624.75;1498066;94;21169;-85
2021/05/16 00:02:54;;;;;;;10.15;5.95;;;;;;;13.87;100.00;100625.45;1522305;93;21270;-82
2021/05/16 00:05:25;;;;;;;12.45;6.80;;;;;;;13.79;100.00;100621.84;1500327;94;21148;-83
2021/05/16 00:07:53;;;;;;;11.93;7.53;;;;;;;13.65;100.00;100617.85;1503111;94;21625;-84
2021/05/16 00:10:24;;;;;;;10.43;7.65;;;;;;;13.39;100.00;100617.03;1505917;94;21172;-83
2021/05/16 00:12:54;;;;;;;17.35;8.53;;;;;;;13.12;100.00;100613.19;1516156;93;21165;-84
2021/05/16 00:15:25;;;;;;;11.12;7.67;;;;;;;12.96;100.00;100607.63;1500970;94;21645;-84
2021/05/16 00:17:53;;;;;;;13.45;8.45;;;;;;;12.88;100.00;100613.52;1502781;93;21114;-86
2021/05/16 00:20:24;;;;;;;9.20;7.80;;;;;;;12.88;100.00;100618.25;1503427;93;21620;-84
2021/05/16 00:22:51;;;;;;;;;;;;;;;12.98;100.00;100617.47;1514184;94;21542;-82
2021/05/16 00:25:20;;;;;;;15.65;8.05;;;;;;;13.06;100.00;100618.95;1498102;94;20264;-83
2021/05/16 00:27:49;;;;;;;11.50;8.33;;;;;;;13.15;100.00;100621.24;1500910;94;21851;-85
2021/05/16 00:30:20;;;;;;;11.40;8.28;;;;;;;13.23;100.00;100626.18;1512106;93;21035;-82
2021/05/16 00:32:48;;;;;;;22.50;9.43;;;;;;;13.30;100.00;100621.72;1498662;95;21154;-85
2021/05/16 00:35:19;;;;;;;15.20;8.28;;;;;;;13.36;100.00;100617.26;1489575;95;21177;-85
2021/05/16 00:37:46;;;;;;;15.72;9.03;;;;;;;13.40;100.00;100621.31;1493655;95;21102;-82
2021/05/16 00:40:15;;;;;;;13.55;8.38;;;;;;;13.43;100.00;100611.87;1507220;94;21816;-83
2021/05/16 00:42:43;;;;;;;11.57;7.47;;;;;;;13.47;100.00;100616.34;1499995;94;21169;-84
2021/05/16 00:45:20;;;;;;;10.58;7.28;;;;;;;13.51;100.00;100622.48;1512380;94;21080;-85
2021/05/16 00:47:58;;;;;;;12.95;8.63;;;;;;;13.53;100.00;100617.95;1491246;95;21158;-86
2021/05/16 00:50:38;;;;;;;13.62;8.35;;;;;;;13.53;100.00;100622.38;1500326;94;21151;-83
2021/05/16 00:53:06;;;;;;;15.50;8.05;;;;;;;13.56;100.00;100622.94;1508483;94;21195;-85
2021/05/16 00:55:33;;;;;;;15.70;8.00;;;;;;;13.58;100.00;100630.64;1506893;94;21027;-86
2021/05/16 00:58:01;;;;;;;19.62;8.15;;;;;;;13.56;100.00;100626.86;1496379;94;22092;-84
2021/05/16 01:00:36;;;;;;;14.98;7.67;;;;;;;13.54;100.00;100618.80;1497934;94;22075;-85
2021/05/16 01:03:04;;;;;;;18.35;8.08;;;;;;;13.52;100.00;100617.61;1505339;93;21159;-84
2021/05/16 01:05:33;;;;;;;14.65;7.83;;;;;;;13.55;100.00;100619.13;1489308;94;21225;-84
2021/05/16 01:08:00;;;;;;;17.27;8.18;;;;;;;13.58;100.00;100619.36;1489202;95;21566;-87
2021/05/16 01:10:27;;;;;;;18.12;8.35;;;;;;;13.52;100.00;100613.68;1490342;93;21160;-85
2021/05/16 01:12:55;;;;;;;17.15;8.80;;;;;;;13.48;100.00;100616.70;1497111;93;21144;-84
2021/05/16 01:15:26;;;;;;;18.37;10.00;;;;;;;13.46;100.00;100618.16;1490730;95;21166;-88
2021/05/16 01:17:57;;;;;;;19.45;10.00;;;;;;;13.30;100.00;100623.84;1504784;93;21127;-85
2021/05/16 01:20:31;;;;;;;25.40;10.58;;;;;;;13.08;100.00;100627.01;1548794;92;21235;-83
2021/05/16 01:23:09;;;;;;;20.37;9.45;;;;;;;12.96;100.00;100623.30;1514951;92;21147;-82
2021/05/16 01:25:41;;;;;;;15.68;8.45;;;;;;;12.93;100.00;100622.63;1526631;92;21108;-84
2021/05/16 01:28:10;;;;;;;14.78;8.35;;;;;;;12.97;100.00;100626.27;1545362;92;21160;-84
2021/05/16 01:30:37;;;;;;;13.75;8.43;;;;;;;13.00;100.00;100631.25;1542258;92;21778;-86
2021/05/16 01:33:05;;;;;;;20.62;9.98;;;;;;;13.09;100.00;100629.16;1543918;92;21123;-85
2021/05/16 01:35:33;;;;;;;20.32;10.18;;;;;;;13.15;100.00;100624.70;1544259;92;21617;-85
2021/05/16 01:38:02;;;;;;;17.80;11.45;;;;;;;13.19;100.00;100634.42;1541725;92;21147;-84
2021/05/16 01:40:30;;;;;;;24.12;11.25;;;;;;;13.14;100.00;100630.89;1543861;92;21143;-83
2021/05/16 01:42:59;;;;;;;21.60;10.55;;;;;;;13.14;100.00;100634.00;1516779;92;21115;-83
2021/05/16 01:45:29;;;;;;;25.92;14.58;;;;;;;13.18;100.00;100635.38;1516241;92;21131;-86
2021/05/16 01:47:58;;;;;;;15.68;10.50;;;;;;;13.18;100.00;100632.76;1549102;92;21118;-86
2021/05/16 01:50:29;;;;;;;11.20;9.75;;;;;;;13.07;100.00;100632.38;1551584;92;21162;-84
2021/05/16 01:52:57;;;;;;;13.20;9.35;;;;;;;12.96;100.00;100635.91;1528860;92;21087;-83
2021/05/16 01:55:23;;;;;;;14.70;8.98;;;;;;;12.90;100.00;100641.17;1546464;91;21200;-85
2021/05/16 01:57:51;;;;;;;12.05;8.98;;;;;;;12.92;100.00;100637.95;1531032;90;21068;-83
2021/05/16 02:00:39;;;;;;;13.72;8.08;;;;;;;12.97;100.00;100637.56;1523975;92;21122;-84
2021/05/16 02:03:07;;;;;;;14.07;7.80;;;;;;;12.99;100.00;100637.43;1541518;92;21107;-84
2021/05/16 02:05:37;;;;;;;20.40;12.80;;;;;;;12.97;100.00;100637.56;1527179;92;21754;-82
2021/05/16 02:08:06;;;;;;;25.45;14.05;;;;;;;12.97;100.00;100641.95;1547271;92;21224;-83
2021/05/16 02:10:37;;;;;;;24.65;15.90;;;;;;;12.98;100.00;100648.84;1540938;92;21147;-84
2021/05/16 02:13:06;;;;;;;22.22;15.38;;;;;;;12.96;100.00;100645.52;1540667;92;21182;-84
2021/05/16 02:15:34;;;;;;;34.27;14.87;;;;;;;12.96;100.00;100652.90;1540135;92;21130;-85
2021/05/16 02:18:02;;;;;;;31.20;14.35;;;;;;;13.00;100.00;100649.55;1542396;92;21111;-88
2021/05/16 02:20:29;;;;;;;42.67;15.53;;;;;;;13.09;100.00;100652.20;1544808;92;21727;-85
2021/05/16 02:22:56;;;;;;;40.38;14.93;;;;;;;13.16;100.00;100657.73;1541989;92;21115;-83
2021/05/16 02:25:24;;;;;;;27.32;13.95;;;;;;;13.20;100.00;100656.50;1541739;92;21153;-87
2021/05/16 02:27:51;;;;;;;27.42;12.15;;;;;;;13.20;100.00;100651.27;1544342;92;21154;-85
2021/05/16 02:30:22;;;;;;;26.97;11.30;;;;;;;13.25;100.00;100654.34;1524951;92;21091;-87
2021/05/16 02:32:49;;;;;;;21.12;8.55;;;;;;;13.29;100.00;100658.83;1538554;91;21210;-84
2021/05/16 02:35:17;;;;;;;23.05;9.93;;;;;;;13.32;100.00;100661.16;1541578;92;21661;-87
2021/05/16 02:37:55;;;;;;;41.77;14.85;;;;;;;13.36;100.00;100665.64;1523096;92;21617;-85
2021/05/16 02:40:22;;;;;;;64.55;33.13;;;;;;;13.34;100.00;100660.55;1542092;91;21071;-82
2021/05/16 02:42:50;;;;;;;46.73;26.52;;;;;;;13.29;100.00;100661.91;1543453;92;21047;-86
2021/05/16 02:45:17;;;;;;;53.23;23.65;;;;;;;13.20;100.00;100664.34;1541296;92;21767;-83
2021/05/16 02:47:45;;;;;;;30.12;16.67;;;;;;;13.20;100.00;100662.22;1542569;92;21685;-83
2021/05/16 02:50:15;;;;;;;34.95;15.70;;;;;;;13.20;100.00;100659.12;1546801;91;21087;-84
2021/05/16 02:52:53;;;;;;;21.68;12.70;;;;;;;13.23;100.00;100658.86;1510950;93;21103;-87
2021/05/16 02:55:22;;;;;;;24.40;12.28;;;;;;;13.31;100.00;100665.22;1516649;93;21201;-85
2021/05/16 02:57:50;;;;;;;18.27;10.32;;;;;;;13.37;100.00;100663.38;1503280;94;21135;-84
2021/05/16 03:00:20;;;;;;;18.32;10.05;;;;;;;13.43;100.00;100664.67;1494169;94;21143;-85
2021/05/16 03:02:47;;;;;;;15.05;9.78;;;;;;;13.50;100.00;100663.98;1519218;93;21259;-82
2021/05/16 03:05:16;;;;;;;41.70;12.07;;;;;;;13.57;100.00;100659.06;1506054;92;21155;-87
2021/05/16 03:07:46;;;;;;;21.07;9.95;;;;;;;13.62;100.00;100663.90;1524039;92;21258;-85
2021/05/16 03:10:13;;;;;;;15.83;8.10;;;;;;;13.60;100.00;100662.73;1500001;94;21149;-84
2021/05/16 03:12:40;;;;;;;20.17;8.43;;;;;;;13.60;100.00;100652.73;1467587;95;21949;-87
2021/05/16 03:15:09;;;;;;;25.92;9.20;;;;;;;13.60;100.00;100649.65;1508500;92;21631;-83
2021/05/16 03:17:36;;;;;;;12.25;8.20;;;;;;;13.64;100.00;100650.20;1491742;95;21152;-84
2021/05/16 03:20:06;;;;;;;20.20;8.25;;;;;;;13.67;100.00;100648.61;1499587;92;21156;-85
2021/05/16 03:22:33;;;;;;;18.92;9.18;;;;;;;13.70;100.00;100653.09;1541414;92;22188;-83
2021/05/16 03:25:01;;;;;;;25.92;8.73;;;;;;;13.73;100.00;100653.33;1533348;92;22105;-85
2021/05/16 03:27:28;;;;;;;21.52;9.40;;;;;;;13.76;100.00;100656.16;1500222;95;21095;-85
2021/05/16 03:29:56;;;;;;;26.90;9.23;;;;;;;13.82;100.00;100655.61;1504555;94;21119;-81
2021/05/16 03:32:23;;;;;;;61.83;10.90;;;;;;;13.89;100.00;100658.02;1500297;93;21218;-85
2021/05/16 03:34:52;;;;;;;67.85;11.60;;;;;;;14.00;100.00;100656.59;1520933;92;21483;-86
2021/05/16 03:37:19;;;;;;;41.15;10.28;;;;;;;14.16;100.00;100652.61;1543609;92;21617;-84
2021/05/16 03:39:46;;;;;;;30.32;8.93;;;;;;;14.32;100.00;100650.72;1544383;92;21103;-83
2021/05/16 03:42:15;;;;;;;38.80;9.58;;;;;;;14.46;100.00;100655.53;1518862;92;20980;-84
2021/05/16 03:44:42;;;;;;;28.23;9.93;;;;;;;14.60;100.00;100650.84;1518038;92;21132;-82
2021/05/16 03:47:09;;;;;;;11.90;8.63;;;;;;;14.75;100.00;100644.22;1547538;92;21775;-84
2021/05/16 03:49:36;;;;;;;25.35;9.65;;;;;;;14.87;100.00;100647.96;1522822;92;21104;-85
2021/05/16 03:52:04;;;;;;;26.12;10.23;;;;;;;14.98;100.00;100641.25;1540414;92;21111;-86
2021/05/16 03:54:31;;;;;;;27.60;10.45;;;;;;;15.08;100.00;100642.05;1545303;92;21147;-86
2021/05/16 03:56:59;;;;;;;20.57;9.50;;;;;;;15.18;100.00;100639.38;1540952;91;21088;-86
2021/05/16 03:59:26;;;;;;;16.12;9.68;;;;;;;15.29;100.00;100638.35;1540064;92;21299;-89
2021/05/16 04:01:53;;;;;;;17.27;10.55;;;;;;;15.41;100.00;100635.89;1521895;92;21131;-85
2021/05/16 04:04:20;;;;;;;14.35;9.85;;;;;;;15.52;100.00;100630.92;1546565;92;21151;-88
2021/05/16 04:06:47;;;;;;;17.90;10.13;;;;;;;15.62;100.00;100630.85;1548553;91;21144;-86
2021/05/16 04:09:14;;;;;;;19.95;10.55;;;;;;;15.70;100.00;100626.19;1540662;91;21264;-86
2021/05/16 04:11:41;;;;;;;28.65;10.85;;;;;;;15.75;100.00;100626.05;1531698;91;21126;-86
2021/05/16 04:14:10;;;;;;;31.27;11.00;;;;;;;15.77;100.00;100626.73;1519290;92;21156;-84
2021/05/16 04:16:40;;;;;;;31.62;10.80;;;;;;;15.77;100.00;100626.73;1528388;92;21829;-82
2021/05/16 04:19:12;;;;;;;19.37;10.33;;;;;;;15.81;100.00;100627.77;1528555;92;21149;-85
2021/05/16 04:21:41;;;;;;;24.50;10.43;;;;;;;15.86;100.00;100627.70;1530268;91;21144;-87
2021/05/16 04:24:09;;;;;;;36.70;11.10;;;;;;;15.92;100.00;100628.40;1542428;92;21672;-83
2021/05/16 04:26:36;;;;;;;29.20;10.55;;;;;;;16.00;100.00;100626.32;1546813;91;21162;-85
2021/05/16 04:29:09;;;;;;;28.02;9.90;;;;;;;16.07;100.00;100619.48;1529233;92;21458;-84
2021/05/16 04:31:42;;;;;;;28.25;9.23;;;;;;;16.17;100.00;100621.20;1509203;92;21113;-86
2021/05/16 04:34:08;;;;;;;22.07;10.55;;;;;;;16.25;100.00;100619.95;1516031;94;21117;-87
2021/05/16 04:36:40;;;;;;;16.05;10.00;;;;;;;16.32;100.00;100626.75;1495114;93;22117;-87
2021/05/16 04:39:11;;;;;;;21.48;10.95;;;;;;;16.39;100.00;100632.54;1526807;92;21635;-83
2021/05/16 04:41:39;;;;;;;20.23;9.45;;;;;;;16.45;100.00;100631.11;1516084;92;21422;-87
2021/05/16 04:44:07;;;;;;;21.70;9.65;;;;;;;16.49;100.00;100635.09;1509384;92;21218;-85
2021/05/16 04:46:35;;;;;;;15.35;8.28;;;;;;;16.56;100.00;100633.97;1508737;92;22068;-86
2021/05/16 04:49:02;;;;;;;11.45;8.85;;;;;;;16.63;100.00;100628.94;1500977;93;21176;-87
2021/05/16 04:51:30;;;;;;;14.55;8.75;;;;;;;16.71;100.00;100635.05;1512772;93;21269;-84
2021/05/16 04:53:59;;;;;;;16.75;8.55;;;;;;;16.81;100.00;100634.13;1537477;91;21744;-86
2021/05/16 05:40:36;;;;;;;;;;;;;;;;;;;;;
2021/05/16 17:25:35;;;;;;;16.25;4.75;;;;;;;22.57;70.54;99922.17;1241929;113;22377;-88
2021/05/16 17:34:33;;;;;;;8.63;4.60;;;;;;;22.32;69.64;99911.72;1323634;106;21271;-86
